sensor_id;sensor_type;location;lat;lon;timestamp;temperature;humidity
19435;DHT22;9853;50.848;4.108;2022-12-05T01:36:42;3.80;99.90
19435;DHT22;9853;50.848;4.108;2022-12-05T01:42:20;3.70;99.90
19435;DHT22;9853;50.848;4.108;2022-12-05T01:49:16;4.10;99.90
19435;DHT22;9853;50.848;4.108;2022-12-05T01:59:59;4.20;99.90
19435;DHT22;9853;50.848;4.108;2022-12-05T02:05:36;4.00;99.90
19435;DHT22;9853;50.848;4.108;2022-12-05T02:08:37;4.10;99.90
19435;DHT22;9853;50.848;4.108;2022-12-05T02:11:27;4.20;99.90
19435;DHT22;9853;50.848;4.108;2022-12-05T02:35:11;4.20;99.90
19435;DHT22;9853;50.848;4.108;2022-12-05T02:38:17;4.30;99.90
19435;DHT22;9853;50.848;4.108;2022-12-05T02:44:44;4.50;99.90
19435;DHT22;9853;50.848;4.108;2022-12-05T02:58:02;4.30;99.90
19435;DHT22;9853;50.848;4.108;2022-12-05T03:45:56;4.10;99.90
19435;DHT22;9853;50.848;4.108;2022-12-05T03:51:42;4.20;99.90
19435;DHT22;9853;50.848;4.108;2022-12-05T03:54:31;4.20;99.90
19435;DHT22;9853;50.848;4.108;2022-12-05T04:00:20;4.30;99.90
19435;DHT22;9853;50.848;4.108;2022-12-05T04:05:33;4.50;99.90
19435;DHT22;9853;50.848;4.108;2022-12-05T04:07:38;4.60;99.90
19435;DHT22;9853;50.848;4.108;2022-12-05T04:09:57;4.60;99.90
19435;DHT22;9853;50.848;4.108;2022-12-05T04:12:38;4.60;99.90
19435;DHT22;9853;50.848;4.108;2022-12-05T04:15:27;4.30;99.90
19435;DHT22;9853;50.848;4.108;2022-12-05T04:18:10;4.50;99.90
19435;DHT22;9853;50.848;4.108;2022-12-05T04:23:39;4.60;99.90
19435;DHT22;9853;50.848;4.108;2022-12-05T04:26:27;4.70;99.90
19435;DHT22;9853;50.848;4.108;2022-12-05T04:35:47;4.20;99.90
19435;DHT22;9853;50.848;4.108;2022-12-05T04:38:25;4.20;99.90
19435;DHT22;9853;50.848;4.108;2022-12-05T04:41:02;4.10;99.90
19435;DHT22;9853;50.848;4.108;2022-12-05T04:46:42;4.30;99.90
19435;DHT22;9853;50.848;4.108;2022-12-05T04:49:29;4.20;99.90
19435;DHT22;9853;50.848;4.108;2022-12-05T04:51:54;4.20;99.90
19435;DHT22;9853;50.848;4.108;2022-12-05T04:58:11;4.10;99.90
19435;DHT22;9853;50.848;4.108;2022-12-05T05:06:06;4.20;99.90
19435;DHT22;9853;50.848;4.108;2022-12-05T05:08:54;4.10;99.90
19435;DHT22;9853;50.848;4.108;2022-12-05T05:11:19;4.00;99.90
19435;DHT22;9853;50.848;4.108;2022-12-05T05:14:05;4.10;99.90
19435;DHT22;9853;50.848;4.108;2022-12-05T05:16:45;4.10;99.90
19435;DHT22;9853;50.848;4.108;2022-12-05T05:19:09;4.00;99.90
19435;DHT22;9853;50.848;4.108;2022-12-05T05:22:01;4.00;99.90
19435;DHT22;9853;50.848;4.108;2022-12-05T05:24:13;4.20;99.90
19435;DHT22;9853;50.848;4.108;2022-12-05T05:27:34;4.20;99.90
19435;DHT22;9853;50.848;4.108;2022-12-05T05:34:15;4.40;99.90
19435;DHT22;9853;50.848;4.108;2022-12-05T05:37:30;4.30;99.90
19435;DHT22;9853;50.848;4.108;2022-12-05T05:39:38;4.30;99.90
19435;DHT22;9853;50.848;4.108;2022-12-05T05:41:56;4.40;99.90
19435;DHT22;9853;50.848;4.108;2022-12-05T05:44:08;4.40;99.90
19435;DHT22;9853;50.848;4.108;2022-12-05T05:46:18;4.50;99.90
19435;DHT22;9853;50.848;4.108;2022-12-05T05:48:50;4.00;99.90
19435;DHT22;9853;50.848;4.108;2022-12-05T05:51:02;3.80;99.90
19435;DHT22;9853;50.848;4.108;2022-12-05T05:53:07;3.90;99.90
19435;DHT22;9853;50.848;4.108;2022-12-05T05:55:26;3.90;99.90
19435;DHT22;9853;50.848;4.108;2022-12-05T05:57:39;3.80;99.90
19435;DHT22;9853;50.848;4.108;2022-12-05T05:59:53;3.70;99.90
19435;DHT22;9853;50.848;4.108;2022-12-05T06:01:59;3.80;99.90
19435;DHT22;9853;50.848;4.108;2022-12-05T06:04:30;4.00;99.90
19435;DHT22;9853;50.848;4.108;2022-12-05T06:06:37;4.10;99.90
19435;DHT22;9853;50.848;4.108;2022-12-05T06:08:46;4.20;99.90
19435;DHT22;9853;50.848;4.108;2022-12-05T06:10:57;4.30;99.90
19435;DHT22;9853;50.848;4.108;2022-12-05T07:15:36;5.00;99.90
19435;DHT22;9853;50.848;4.108;2022-12-05T07:22:50;4.90;99.90
19435;DHT22;9853;50.848;4.108;2022-12-05T07:29:09;4.60;99.90
19435;DHT22;9853;50.848;4.108;2022-12-05T07:35:29;4.80;99.90
19435;DHT22;9853;50.848;4.108;2022-12-05T07:38:38;4.70;99.90
19435;DHT22;9853;50.848;4.108;2022-12-05T07:41:54;4.70;99.90
19435;DHT22;9853;50.848;4.108;2022-12-05T08:40:19;4.40;99.90
19435;DHT22;9853;50.848;4.108;2022-12-05T08:46:51;4.80;99.90
19435;DHT22;9853;50.848;4.108;2022-12-05T08:49:46;4.80;99.90
19435;DHT22;9853;50.848;4.108;2022-12-05T08:53:04;5.10;99.90
19435;DHT22;9853;50.848;4.108;2022-12-05T08:59:27;5.50;99.90
19435;DHT22;9853;50.848;4.108;2022-12-05T09:02:01;5.40;99.90
19435;DHT22;9853;50.848;4.108;2022-12-05T09:04:41;5.40;99.90
19435;DHT22;9853;50.848;4.108;2022-12-05T09:07:01;5.50;99.90
19435;DHT22;9853;50.848;4.108;2022-12-05T09:09:35;6.00;99.90
19435;DHT22;9853;50.848;4.108;2022-12-05T09:12:10;6.20;99.90
19435;DHT22;9853;50.848;4.108;2022-12-05T09:17:25;6.00;99.90
19435;DHT22;9853;50.848;4.108;2022-12-05T09:23:36;5.90;99.90
19435;DHT22;9853;50.848;4.108;2022-12-05T09:26:01;5.80;99.90
19435;DHT22;9853;50.848;4.108;2022-12-05T09:28:44;5.80;99.90
19435;DHT22;9853;50.848;4.108;2022-12-05T09:31:09;5.90;99.90
19435;DHT22;9853;50.848;4.108;2022-12-05T09:33:20;6.00;99.90
19435;DHT22;9853;50.848;4.108;2022-12-05T09:35:40;6.20;99.90
19435;DHT22;9853;50.848;4.108;2022-12-05T09:38:31;6.30;99.90
19435;DHT22;9853;50.848;4.108;2022-12-05T09:50:25;6.70;99.90
19435;DHT22;9853;50.848;4.108;2022-12-05T10:03:48;6.40;99.90
19435;DHT22;9853;50.848;4.108;2022-12-05T10:12:40;6.60;99.90
19435;DHT22;9853;50.848;4.108;2022-12-05T10:18:35;6.40;99.90
19435;DHT22;9853;50.848;4.108;2022-12-05T10:25:22;6.10;99.90
19435;DHT22;9853;50.848;4.108;2022-12-05T10:28:09;5.80;99.90
19435;DHT22;9853;50.848;4.108;2022-12-05T10:30:21;5.70;99.90
19435;DHT22;9853;50.848;4.108;2022-12-05T10:32:59;5.50;99.90
19435;DHT22;9853;50.848;4.108;2022-12-05T10:42:38;6.20;99.90
19435;DHT22;9853;50.848;4.108;2022-12-05T10:45:52;6.10;99.90
19435;DHT22;9853;50.848;4.108;2022-12-05T10:54:36;5.90;99.90
19435;DHT22;9853;50.848;4.108;2022-12-05T10:57:34;5.80;99.90
19435;DHT22;9853;50.848;4.108;2022-12-05T11:00:24;5.90;99.90
19435;DHT22;9853;50.848;4.108;2022-12-05T11:02:54;5.90;99.90
19435;DHT22;9853;50.848;4.108;2022-12-05T11:05:40;5.80;99.90
19435;DHT22;9853;50.848;4.108;2022-12-05T11:14:20;6.40;99.90
19435;DHT22;9853;50.848;4.108;2022-12-05T11:17:10;6.20;99.90
19435;DHT22;9853;50.848;4.108;2022-12-05T11:19:42;6.30;99.90
19435;DHT22;9853;50.848;4.108;2022-12-05T11:22:09;6.40;99.90
19435;DHT22;9853;50.848;4.108;2022-12-05T11:31:28;6.40;99.90
19435;DHT22;9853;50.848;4.108;2022-12-05T11:48:24;6.30;99.90
19435;DHT22;9853;50.848;4.108;2022-12-05T12:06:30;6.60;99.90
19435;DHT22;9853;50.848;4.108;2022-12-05T12:09:22;6.90;99.90
19435;DHT22;9853;50.848;4.108;2022-12-05T13:35:43;6.50;99.90
19435;DHT22;9853;50.848;4.108;2022-12-05T13:45:35;7.10;99.90
19435;DHT22;9853;50.848;4.108;2022-12-05T14:00:45;6.50;99.90
19435;DHT22;9853;50.848;4.108;2022-12-05T14:13:50;6.50;99.90
19435;DHT22;9853;50.848;4.108;2022-12-05T14:16:41;6.20;99.90
19435;DHT22;9853;50.848;4.108;2022-12-05T14:58:07;6.10;99.90
19435;DHT22;9853;50.848;4.108;2022-12-05T15:00:59;6.20;99.90
19435;DHT22;9853;50.848;4.108;2022-12-05T15:06:52;6.20;99.90
19435;DHT22;9853;50.848;4.108;2022-12-05T15:15:26;6.40;99.90
19435;DHT22;9853;50.848;4.108;2022-12-05T15:24:14;6.50;99.90
19435;DHT22;9853;50.848;4.108;2022-12-05T15:29:29;6.40;99.90
19435;DHT22;9853;50.848;4.108;2022-12-05T15:35:31;6.40;99.90
19435;DHT22;9853;50.848;4.108;2022-12-05T15:44:33;6.30;99.90
19435;DHT22;9853;50.848;4.108;2022-12-05T15:47:24;6.10;99.90
19435;DHT22;9853;50.848;4.108;2022-12-05T15:49:42;6.20;99.90
19435;DHT22;9853;50.848;4.108;2022-12-05T16:01:57;6.30;99.90
19435;DHT22;9853;50.848;4.108;2022-12-05T16:10:15;6.30;99.90
19435;DHT22;9853;50.848;4.108;2022-12-05T16:12:39;6.30;99.90
19435;DHT22;9853;50.848;4.108;2022-12-05T16:15:14;6.40;99.90
19435;DHT22;9853;50.848;4.108;2022-12-05T16:17:21;6.50;99.90
19435;DHT22;9853;50.848;4.108;2022-12-05T16:19:25;6.40;99.90
19435;DHT22;9853;50.848;4.108;2022-12-05T16:21:39;6.40;99.90
19435;DHT22;9853;50.848;4.108;2022-12-05T16:24:19;6.40;99.90
19435;DHT22;9853;50.848;4.108;2022-12-05T16:26:41;6.50;99.90
19435;DHT22;9853;50.848;4.108;2022-12-05T16:28:59;6.50;99.90
19435;DHT22;9853;50.848;4.108;2022-12-05T16:31:02;6.60;99.90
19435;DHT22;9853;50.848;4.108;2022-12-05T16:33:15;6.60;99.90
19435;DHT22;9853;50.848;4.108;2022-12-05T16:35:35;6.60;99.90
19435;DHT22;9853;50.848;4.108;2022-12-05T16:37:36;6.70;99.90
19435;DHT22;9853;50.848;4.108;2022-12-05T16:39:43;6.70;99.90
19435;DHT22;9853;50.848;4.108;2022-12-05T16:41:47;6.70;99.90
19435;DHT22;9853;50.848;4.108;2022-12-05T16:43:51;6.80;99.90
19435;DHT22;9853;50.848;4.108;2022-12-05T16:48:25;6.70;99.90
19435;DHT22;9853;50.848;4.108;2022-12-05T16:50:35;6.70;99.90
19435;DHT22;9853;50.848;4.108;2022-12-05T16:52:40;6.70;99.90
19435;DHT22;9853;50.848;4.108;2022-12-05T16:54:45;6.70;99.90
19435;DHT22;9853;50.848;4.108;2022-12-05T16:56:48;6.70;99.90
19435;DHT22;9853;50.848;4.108;2022-12-05T16:58:52;6.70;99.90
19435;DHT22;9853;50.848;4.108;2022-12-05T17:01:02;6.80;99.90
19435;DHT22;9853;50.848;4.108;2022-12-05T17:03:07;6.70;99.90
19435;DHT22;9853;50.848;4.108;2022-12-05T17:05:16;6.80;99.90
19435;DHT22;9853;50.848;4.108;2022-12-05T17:07:18;6.80;99.90
19435;DHT22;9853;50.848;4.108;2022-12-05T17:09:22;6.70;99.90
19435;DHT22;9853;50.848;4.108;2022-12-05T17:11:30;6.80;99.90
19435;DHT22;9853;50.848;4.108;2022-12-05T17:13:35;6.90;99.90
19435;DHT22;9853;50.848;4.108;2022-12-05T17:15:36;6.90;99.90
19435;DHT22;9853;50.848;4.108;2022-12-05T17:17:40;6.90;99.90
19435;DHT22;9853;50.848;4.108;2022-12-05T17:19:41;6.80;99.90
19435;DHT22;9853;50.848;4.108;2022-12-05T17:21:42;6.80;99.90
19435;DHT22;9853;50.848;4.108;2022-12-05T17:23:45;6.80;99.90
19435;DHT22;9853;50.848;4.108;2022-12-05T17:25:57;6.80;99.90
19435;DHT22;9853;50.848;4.108;2022-12-05T17:27:59;6.80;99.90
19435;DHT22;9853;50.848;4.108;2022-12-05T17:30:01;6.80;99.90
19435;DHT22;9853;50.848;4.108;2022-12-05T17:32:09;6.80;99.90
19435;DHT22;9853;50.848;4.108;2022-12-05T17:34:16;6.90;99.90
19435;DHT22;9853;50.848;4.108;2022-12-05T17:36:17;6.80;99.90
19435;DHT22;9853;50.848;4.108;2022-12-05T17:38:21;6.70;99.90
19435;DHT22;9853;50.848;4.108;2022-12-05T17:40:40;6.70;99.90
19435;DHT22;9853;50.848;4.108;2022-12-05T17:42:44;6.80;99.90
19435;DHT22;9853;50.848;4.108;2022-12-05T17:44:44;6.80;99.90
19435;DHT22;9853;50.848;4.108;2022-12-05T17:46:57;6.80;99.90
19435;DHT22;9853;50.848;4.108;2022-12-05T17:49:20;6.90;99.90
19435;DHT22;9853;50.848;4.108;2022-12-05T17:51:33;6.90;99.90
19435;DHT22;9853;50.848;4.108;2022-12-05T17:54:01;6.70;99.90
19435;DHT22;9853;50.848;4.108;2022-12-05T17:56:22;6.80;99.90
19435;DHT22;9853;50.848;4.108;2022-12-05T17:58:59;6.90;99.90
19435;DHT22;9853;50.848;4.108;2022-12-05T18:01:23;6.60;99.90
19435;DHT22;9853;50.848;4.108;2022-12-05T18:03:49;6.60;99.90
19435;DHT22;9853;50.848;4.108;2022-12-05T18:06:03;6.60;99.90
19435;DHT22;9853;50.848;4.108;2022-12-05T18:08:08;6.60;99.90
19435;DHT22;9853;50.848;4.108;2022-12-05T18:10:13;6.70;99.90
19435;DHT22;9853;50.848;4.108;2022-12-05T18:12:14;6.80;99.90
19435;DHT22;9853;50.848;4.108;2022-12-05T18:14:33;6.90;99.90
19435;DHT22;9853;50.848;4.108;2022-12-05T18:16:39;6.80;99.90
19435;DHT22;9853;50.848;4.108;2022-12-05T18:18:52;6.70;99.90
19435;DHT22;9853;50.848;4.108;2022-12-05T18:20:52;6.80;99.90
19435;DHT22;9853;50.848;4.108;2022-12-05T18:22:55;6.80;99.90
19435;DHT22;9853;50.848;4.108;2022-12-05T18:24:57;6.80;99.90
19435;DHT22;9853;50.848;4.108;2022-12-05T18:27:01;6.90;99.90
19435;DHT22;9853;50.848;4.108;2022-12-05T18:29:03;7.00;99.90
19435;DHT22;9853;50.848;4.108;2022-12-05T18:31:13;6.90;99.90
19435;DHT22;9853;50.848;4.108;2022-12-05T18:33:19;6.80;99.90
19435;DHT22;9853;50.848;4.108;2022-12-05T18:35:25;6.80;99.90
19435;DHT22;9853;50.848;4.108;2022-12-05T18:37:42;6.90;99.90
19435;DHT22;9853;50.848;4.108;2022-12-05T18:39:44;6.90;99.90
19435;DHT22;9853;50.848;4.108;2022-12-05T18:41:45;7.00;99.90
19435;DHT22;9853;50.848;4.108;2022-12-05T18:43:45;6.90;99.90
19435;DHT22;9853;50.848;4.108;2022-12-05T18:45:54;6.90;99.90
19435;DHT22;9853;50.848;4.108;2022-12-05T18:47:54;6.80;99.90
19435;DHT22;9853;50.848;4.108;2022-12-05T18:49:55;6.70;99.90
19435;DHT22;9853;50.848;4.108;2022-12-05T18:51:56;6.70;99.90
19435;DHT22;9853;50.848;4.108;2022-12-05T18:53:57;6.80;99.90
19435;DHT22;9853;50.848;4.108;2022-12-05T18:56:04;6.80;99.90
19435;DHT22;9853;50.848;4.108;2022-12-05T18:58:05;6.80;99.90
19435;DHT22;9853;50.848;4.108;2022-12-05T19:00:07;6.70;99.90
19435;DHT22;9853;50.848;4.108;2022-12-05T19:02:08;6.70;99.90
19435;DHT22;9853;50.848;4.108;2022-12-05T19:04:11;6.90;99.90
19435;DHT22;9853;50.848;4.108;2022-12-05T19:06:18;7.00;99.90
19435;DHT22;9853;50.848;4.108;2022-12-05T19:08:19;6.90;99.90
19435;DHT22;9853;50.848;4.108;2022-12-05T19:10:21;6.80;99.90
19435;DHT22;9853;50.848;4.108;2022-12-05T19:12:21;6.80;99.90
19435;DHT22;9853;50.848;4.108;2022-12-05T19:14:23;6.80;99.90
19435;DHT22;9853;50.848;4.108;2022-12-05T19:16:26;6.70;99.90
19435;DHT22;9853;50.848;4.108;2022-12-05T19:18:26;6.70;99.90
19435;DHT22;9853;50.848;4.108;2022-12-05T19:20:27;6.70;99.90
19435;DHT22;9853;50.848;4.108;2022-12-05T19:22:28;6.80;99.90
19435;DHT22;9853;50.848;4.108;2022-12-05T19:24:29;6.80;99.90
19435;DHT22;9853;50.848;4.108;2022-12-05T19:26:31;6.80;99.90
19435;DHT22;9853;50.848;4.108;2022-12-05T19:28:35;6.80;99.90
19435;DHT22;9853;50.848;4.108;2022-12-05T19:30:36;6.90;99.90
19435;DHT22;9853;50.848;4.108;2022-12-05T19:32:37;6.80;99.90
19435;DHT22;9853;50.848;4.108;2022-12-05T19:34:38;6.80;99.90
19435;DHT22;9853;50.848;4.108;2022-12-05T19:36:41;6.70;99.90
19435;DHT22;9853;50.848;4.108;2022-12-05T19:38:44;6.80;99.90
19435;DHT22;9853;50.848;4.108;2022-12-05T19:40:54;7.00;99.90
19435;DHT22;9853;50.848;4.108;2022-12-05T19:42:55;7.10;99.90
19435;DHT22;9853;50.848;4.108;2022-12-05T19:44:56;7.10;99.90
19435;DHT22;9853;50.848;4.108;2022-12-05T19:46:57;7.00;99.90
19435;DHT22;9853;50.848;4.108;2022-12-05T19:49:03;6.90;99.90
19435;DHT22;9853;50.848;4.108;2022-12-05T19:51:04;6.90;99.90
19435;DHT22;9853;50.848;4.108;2022-12-05T19:53:05;6.90;99.90
19435;DHT22;9853;50.848;4.108;2022-12-05T19:55:06;6.90;99.90
19435;DHT22;9853;50.848;4.108;2022-12-05T19:57:07;6.80;99.90
19435;DHT22;9853;50.848;4.108;2022-12-05T19:59:12;6.80;99.90
19435;DHT22;9853;50.848;4.108;2022-12-05T20:01:22;6.90;99.90
19435;DHT22;9853;50.848;4.108;2022-12-05T20:03:23;7.00;99.90
19435;DHT22;9853;50.848;4.108;2022-12-05T20:05:24;7.00;99.90
19435;DHT22;9853;50.848;4.108;2022-12-05T20:07:25;7.10;99.90
19435;DHT22;9853;50.848;4.108;2022-12-05T20:09:26;7.10;99.90
19435;DHT22;9853;50.848;4.108;2022-12-05T20:11:27;7.10;99.90
19435;DHT22;9853;50.848;4.108;2022-12-05T20:13:30;7.10;99.90
19435;DHT22;9853;50.848;4.108;2022-12-05T20:15:32;7.00;99.90
19435;DHT22;9853;50.848;4.108;2022-12-05T20:17:32;7.10;99.90
19435;DHT22;9853;50.848;4.108;2022-12-05T20:19:33;7.20;99.90
19435;DHT22;9853;50.848;4.108;2022-12-05T20:21:35;7.20;99.90
19435;DHT22;9853;50.848;4.108;2022-12-05T20:23:37;7.20;99.90
19435;DHT22;9853;50.848;4.108;2022-12-05T20:25:38;7.10;99.90
19435;DHT22;9853;50.848;4.108;2022-12-05T20:27:38;7.10;99.90
19435;DHT22;9853;50.848;4.108;2022-12-05T20:29:39;7.20;99.90
19435;DHT22;9853;50.848;4.108;2022-12-05T20:31:41;7.20;99.90
19435;DHT22;9853;50.848;4.108;2022-12-05T20:33:42;7.30;99.90
19435;DHT22;9853;50.848;4.108;2022-12-05T20:35:43;7.30;99.90
19435;DHT22;9853;50.848;4.108;2022-12-05T20:37:44;7.40;99.90
19435;DHT22;9853;50.848;4.108;2022-12-05T20:39:45;7.40;99.90
19435;DHT22;9853;50.848;4.108;2022-12-05T20:41:48;7.50;99.90
19435;DHT22;9853;50.848;4.108;2022-12-05T20:43:52;7.40;99.90
19435;DHT22;9853;50.848;4.108;2022-12-05T20:45:54;7.40;99.90
19435;DHT22;9853;50.848;4.108;2022-12-05T20:47:56;7.50;99.90
19435;DHT22;9853;50.848;4.108;2022-12-05T20:49:57;7.30;99.90
19435;DHT22;9853;50.848;4.108;2022-12-05T20:51:57;7.30;99.90
19435;DHT22;9853;50.848;4.108;2022-12-05T20:54:00;7.50;99.90
19435;DHT22;9853;50.848;4.108;2022-12-05T20:56:25;7.40;99.90
19435;DHT22;9853;50.848;4.108;2022-12-05T20:58:27;7.40;99.90
19435;DHT22;9853;50.848;4.108;2022-12-05T21:00:29;7.30;99.90
19435;DHT22;9853;50.848;4.108;2022-12-05T21:02:30;7.30;99.90
19435;DHT22;9853;50.848;4.108;2022-12-05T21:04:30;7.40;99.90
19435;DHT22;9853;50.848;4.108;2022-12-05T21:06:36;7.40;99.90
19435;DHT22;9853;50.848;4.108;2022-12-05T21:08:37;7.50;99.90
19435;DHT22;9853;50.848;4.108;2022-12-05T21:10:49;7.50;99.90
19435;DHT22;9853;50.848;4.108;2022-12-05T21:12:50;7.50;99.90
19435;DHT22;9853;50.848;4.108;2022-12-05T21:14:50;7.40;99.90
19435;DHT22;9853;50.848;4.108;2022-12-05T21:16:52;7.40;99.90
19435;DHT22;9853;50.848;4.108;2022-12-05T21:18:52;7.40;99.90
19435;DHT22;9853;50.848;4.108;2022-12-05T21:20:58;7.50;99.90
19435;DHT22;9853;50.848;4.108;2022-12-05T21:22:59;7.50;99.90
19435;DHT22;9853;50.848;4.108;2022-12-05T21:25:00;7.50;99.90
19435;DHT22;9853;50.848;4.108;2022-12-05T21:27:02;7.50;99.90
19435;DHT22;9853;50.848;4.108;2022-12-05T21:29:04;7.30;99.90
19435;DHT22;9853;50.848;4.108;2022-12-05T21:31:30;7.40;99.90
19435;DHT22;9853;50.848;4.108;2022-12-05T21:33:30;7.30;99.90
19435;DHT22;9853;50.848;4.108;2022-12-05T21:35:31;7.30;99.90
19435;DHT22;9853;50.848;4.108;2022-12-05T21:37:31;7.40;99.90
19435;DHT22;9853;50.848;4.108;2022-12-05T21:39:32;7.40;99.90
19435;DHT22;9853;50.848;4.108;2022-12-05T21:41:33;7.50;99.90
19435;DHT22;9853;50.848;4.108;2022-12-05T21:43:34;7.50;99.90
19435;DHT22;9853;50.848;4.108;2022-12-05T21:45:37;7.50;99.90
19435;DHT22;9853;50.848;4.108;2022-12-05T21:47:38;7.50;99.90
19435;DHT22;9853;50.848;4.108;2022-12-05T21:49:38;7.50;99.90
19435;DHT22;9853;50.848;4.108;2022-12-05T21:51:39;7.50;99.90
19435;DHT22;9853;50.848;4.108;2022-12-05T21:53:40;7.50;99.90
19435;DHT22;9853;50.848;4.108;2022-12-05T21:55:41;7.40;99.90
19435;DHT22;9853;50.848;4.108;2022-12-05T21:57:42;7.40;99.90
19435;DHT22;9853;50.848;4.108;2022-12-05T21:59:43;7.40;99.90
19435;DHT22;9853;50.848;4.108;2022-12-05T22:01:44;7.40;99.90
19435;DHT22;9853;50.848;4.108;2022-12-05T22:03:46;7.10;99.90
19435;DHT22;9853;50.848;4.108;2022-12-05T22:05:47;7.20;99.90
19435;DHT22;9853;50.848;4.108;2022-12-05T22:07:49;7.20;99.90
19435;DHT22;9853;50.848;4.108;2022-12-05T22:09:49;7.30;99.90
19435;DHT22;9853;50.848;4.108;2022-12-05T22:11:50;7.30;99.90
19435;DHT22;9853;50.848;4.108;2022-12-05T22:13:51;7.30;99.90
19435;DHT22;9853;50.848;4.108;2022-12-05T22:15:56;7.30;99.90
19435;DHT22;9853;50.848;4.108;2022-12-05T22:17:57;7.40;99.90
19435;DHT22;9853;50.848;4.108;2022-12-05T22:19:58;7.40;99.90
19435;DHT22;9853;50.848;4.108;2022-12-05T22:21:59;7.30;99.90
19435;DHT22;9853;50.848;4.108;2022-12-05T22:23:59;7.30;99.90
19435;DHT22;9853;50.848;4.108;2022-12-05T22:26:01;7.40;99.90
19435;DHT22;9853;50.848;4.108;2022-12-05T22:28:02;7.40;99.90
19435;DHT22;9853;50.848;4.108;2022-12-05T22:30:04;7.40;99.90
19435;DHT22;9853;50.848;4.108;2022-12-05T22:32:05;7.40;99.90
19435;DHT22;9853;50.848;4.108;2022-12-05T22:34:05;7.40;99.90
19435;DHT22;9853;50.848;4.108;2022-12-05T22:36:08;7.50;99.90
19435;DHT22;9853;50.848;4.108;2022-12-05T22:38:09;7.50;99.90
19435;DHT22;9853;50.848;4.108;2022-12-05T22:40:10;7.50;99.90
19435;DHT22;9853;50.848;4.108;2022-12-05T22:42:11;7.40;99.90
19435;DHT22;9853;50.848;4.108;2022-12-05T22:44:11;7.60;99.90
19435;DHT22;9853;50.848;4.108;2022-12-05T22:46:14;7.50;99.90
19435;DHT22;9853;50.848;4.108;2022-12-05T22:48:17;7.50;99.90
19435;DHT22;9853;50.848;4.108;2022-12-05T22:50:17;7.60;99.90
19435;DHT22;9853;50.848;4.108;2022-12-05T22:52:18;7.60;99.90
19435;DHT22;9853;50.848;4.108;2022-12-05T22:54:19;7.60;99.90
19435;DHT22;9853;50.848;4.108;2022-12-05T22:56:22;7.60;99.90
19435;DHT22;9853;50.848;4.108;2022-12-05T22:58:23;7.60;99.90
19435;DHT22;9853;50.848;4.108;2022-12-05T23:00:23;7.70;99.90
19435;DHT22;9853;50.848;4.108;2022-12-05T23:02:24;7.70;99.90
19435;DHT22;9853;50.848;4.108;2022-12-05T23:04:25;7.80;99.90
19435;DHT22;9853;50.848;4.108;2022-12-05T23:06:27;7.70;99.90
19435;DHT22;9853;50.848;4.108;2022-12-05T23:08:28;7.70;99.90
19435;DHT22;9853;50.848;4.108;2022-12-05T23:10:29;7.70;99.90
19435;DHT22;9853;50.848;4.108;2022-12-05T23:12:30;7.70;99.90
19435;DHT22;9853;50.848;4.108;2022-12-05T23:14:31;7.70;99.90
19435;DHT22;9853;50.848;4.108;2022-12-05T23:16:33;7.70;99.90
19435;DHT22;9853;50.848;4.108;2022-12-05T23:18:34;8.10;99.90
19435;DHT22;9853;50.848;4.108;2022-12-05T23:20:55;8.00;99.90
19435;DHT22;9853;50.848;4.108;2022-12-05T23:23:01;8.00;99.90
19435;DHT22;9853;50.848;4.108;2022-12-05T23:25:02;7.90;99.90
19435;DHT22;9853;50.848;4.108;2022-12-05T23:27:03;8.30;99.90
19435;DHT22;9853;50.848;4.108;2022-12-05T23:29:04;7.90;99.90
19435;DHT22;9853;50.848;4.108;2022-12-05T23:31:07;7.90;99.90
19435;DHT22;9853;50.848;4.108;2022-12-05T23:33:08;7.90;99.90
19435;DHT22;9853;50.848;4.108;2022-12-05T23:35:09;8.00;99.90
19435;DHT22;9853;50.848;4.108;2022-12-05T23:37:12;7.80;99.90
19435;DHT22;9853;50.848;4.108;2022-12-05T23:39:13;7.90;99.90
19435;DHT22;9853;50.848;4.108;2022-12-05T23:41:16;7.80;99.90
19435;DHT22;9853;50.848;4.108;2022-12-05T23:43:17;7.70;99.90
19435;DHT22;9853;50.848;4.108;2022-12-05T23:45:18;7.70;99.90
19435;DHT22;9853;50.848;4.108;2022-12-05T23:47:19;7.60;99.90
19435;DHT22;9853;50.848;4.108;2022-12-05T23:49:19;7.80;99.90
19435;DHT22;9853;50.848;4.108;2022-12-05T23:51:23;7.60;99.90
19435;DHT22;9853;50.848;4.108;2022-12-05T23:53:24;7.60;99.90
19435;DHT22;9853;50.848;4.108;2022-12-05T23:55:25;7.50;99.90
19435;DHT22;9853;50.848;4.108;2022-12-05T23:57:26;7.50;99.90
19435;DHT22;9853;50.848;4.108;2022-12-05T23:59:27;7.50;99.90
